sensor_id;sensor_type;location;lat;lon;timestamp;pressure;altitude;pressure_sealevel;temperature;humidity
21956;BME280;11142;49.930;8.606;2023-05-19T00:00:23;100810.03;;;10.02;100.00
21956;BME280;11142;49.930;8.606;2023-05-19T00:02:53;100800.72;;;9.98;100.00
21956;BME280;11142;49.930;8.606;2023-05-19T00:05:22;100801.78;;;9.94;100.00
21956;BME280;11142;49.930;8.606;2023-05-19T00:07:50;100802.69;;;9.93;100.00
21956;BME280;11142;49.930;8.606;2023-05-19T00:10:19;100796.84;;;9.89;100.00
21956;BME280;11142;49.930;8.606;2023-05-19T00:12:47;100796.47;;;9.80;100.00
21956;BME280;11142;49.930;8.606;2023-05-19T00:15:19;100798.41;;;9.75;100.00
21956;BME280;11142;49.930;8.606;2023-05-19T00:17:47;100800.56;;;9.67;100.00
21956;BME280;11142;49.930;8.606;2023-05-19T00:20:16;100796.13;;;9.69;100.00
21956;BME280;11142;49.930;8.606;2023-05-19T00:22:44;100804.06;;;9.66;100.00
21956;BME280;11142;49.930;8.606;2023-05-19T00:25:12;100800.06;;;9.58;100.00
21956;BME280;11142;49.930;8.606;2023-05-19T00:27:40;100802.66;;;9.58;100.00
21956;BME280;11142;49.930;8.606;2023-05-19T00:30:08;100802.06;;;9.53;100.00
21956;BME280;11142;49.930;8.606;2023-05-19T00:32:36;100808.06;;;9.54;100.00
21956;BME280;11142;49.930;8.606;2023-05-19T00:35:05;100802.94;;;9.52;100.00
21956;BME280;11142;49.930;8.606;2023-05-19T00:37:34;100806.53;;;9.50;100.00
21956;BME280;11142;49.930;8.606;2023-05-19T00:40:02;100793.88;;;9.44;100.00
21956;BME280;11142;49.930;8.606;2023-05-19T00:42:32;100793.94;;;9.42;100.00
21956;BME280;11142;49.930;8.606;2023-05-19T00:45:00;100791.63;;;9.36;100.00
21956;BME280;11142;49.930;8.606;2023-05-19T00:47:27;100779.13;;;9.27;100.00
21956;BME280;11142;49.930;8.606;2023-05-19T00:49:56;100794.75;;;9.26;100.00
21956;BME280;11142;49.930;8.606;2023-05-19T00:52:23;100788.72;;;9.25;100.00
21956;BME280;11142;49.930;8.606;2023-05-19T00:54:53;100790.31;;;9.28;100.00
21956;BME280;11142;49.930;8.606;2023-05-19T00:57:22;100783.88;;;9.36;100.00
21956;BME280;11142;49.930;8.606;2023-05-19T00:59:51;100782.22;;;9.35;100.00
21956;BME280;11142;49.930;8.606;2023-05-19T01:02:19;100777.22;;;9.31;100.00
21956;BME280;11142;49.930;8.606;2023-05-19T01:04:47;100779.81;;;9.31;100.00
21956;BME280;11142;49.930;8.606;2023-05-19T01:07:17;100784.44;;;9.24;100.00
21956;BME280;11142;49.930;8.606;2023-05-19T01:09:46;100771.69;;;9.20;100.00
21956;BME280;11142;49.930;8.606;2023-05-19T01:12:16;100773.09;;;9.27;100.00
21956;BME280;11142;49.930;8.606;2023-05-19T01:14:44;100757.78;;;9.22;100.00
21956;BME280;11142;49.930;8.606;2023-05-19T01:17:14;100764.63;;;9.23;100.00
21956;BME280;11142;49.930;8.606;2023-05-19T01:19:49;100766.31;;;9.24;100.00
21956;BME280;11142;49.930;8.606;2023-05-19T01:22:27;100760.44;;;9.21;100.00
21956;BME280;11142;49.930;8.606;2023-05-19T01:28:01;100758.63;;;9.23;100.00
21956;BME280;11142;49.930;8.606;2023-05-19T01:30:36;100765.00;;;9.16;100.00
21956;BME280;11142;49.930;8.606;2023-05-19T01:33:07;100771.63;;;9.21;100.00
21956;BME280;11142;49.930;8.606;2023-05-19T01:35:37;100761.56;;;9.15;100.00
21956;BME280;11142;49.930;8.606;2023-05-19T01:38:07;100764.78;;;9.20;100.00
21956;BME280;11142;49.930;8.606;2023-05-19T01:40:35;100771.63;;;9.21;100.00
21956;BME280;11142;49.930;8.606;2023-05-19T01:43:04;100758.69;;;9.21;100.00
21956;BME280;11142;49.930;8.606;2023-05-19T01:45:32;100770.88;;;9.19;100.00
21956;BME280;11142;49.930;8.606;2023-05-19T01:48:03;100765.91;;;9.15;100.00
21956;BME280;11142;49.930;8.606;2023-05-19T01:50:37;100770.25;;;9.14;100.00
21956;BME280;11142;49.930;8.606;2023-05-19T01:53:06;100773.63;;;9.16;100.00
21956;BME280;11142;49.930;8.606;2023-05-19T01:55:34;100775.56;;;9.11;100.00
21956;BME280;11142;49.930;8.606;2023-05-19T01:58:05;100773.88;;;9.10;100.00
21956;BME280;11142;49.930;8.606;2023-05-19T02:00:39;100768.97;;;9.04;100.00
21956;BME280;11142;49.930;8.606;2023-05-19T02:03:27;100777.53;;;9.06;100.00
21956;BME280;11142;49.930;8.606;2023-05-19T02:05:58;100770.97;;;8.99;100.00
21956;BME280;11142;49.930;8.606;2023-05-19T02:08:36;100776.84;;;9.02;100.00
21956;BME280;11142;49.930;8.606;2023-05-19T02:11:08;100778.91;;;8.94;100.00
21956;BME280;11142;49.930;8.606;2023-05-19T02:13:40;100786.91;;;8.90;100.00
21956;BME280;11142;49.930;8.606;2023-05-19T02:16:10;100779.19;;;8.88;100.00
21956;BME280;11142;49.930;8.606;2023-05-19T02:18:42;100781.44;;;8.77;100.00
21956;BME280;11142;49.930;8.606;2023-05-19T02:21:11;100777.88;;;8.80;100.00
21956;BME280;11142;49.930;8.606;2023-05-19T02:23:39;100781.31;;;8.80;100.00
21956;BME280;11142;49.930;8.606;2023-05-19T02:26:07;100780.31;;;8.83;100.00
21956;BME280;11142;49.930;8.606;2023-05-19T02:28:35;100774.59;;;8.76;100.00
21956;BME280;11142;49.930;8.606;2023-05-19T02:31:03;100777.31;;;8.73;100.00
21956;BME280;11142;49.930;8.606;2023-05-19T02:33:34;100773.03;;;8.72;100.00
21956;BME280;11142;49.930;8.606;2023-05-19T02:36:04;100768.28;;;8.63;100.00
21956;BME280;11142;49.930;8.606;2023-05-19T02:38:32;100768.34;;;8.62;100.00
21956;BME280;11142;49.930;8.606;2023-05-19T02:41:01;100766.81;;;8.58;100.00
21956;BME280;11142;49.930;8.606;2023-05-19T02:43:30;100768.63;;;8.56;100.00
21956;BME280;11142;49.930;8.606;2023-05-19T02:45:58;100767.31;;;8.66;100.00
21956;BME280;11142;49.930;8.606;2023-05-19T02:48:26;100758.06;;;8.60;100.00
21956;BME280;11142;49.930;8.606;2023-05-19T02:50:54;100757.22;;;8.60;100.00
21956;BME280;11142;49.930;8.606;2023-05-19T02:53:24;100756.66;;;8.53;100.00
21956;BME280;11142;49.930;8.606;2023-05-19T02:55:52;100753.13;;;8.56;100.00
21956;BME280;11142;49.930;8.606;2023-05-19T02:58:20;100750.38;;;8.59;100.00
21956;BME280;11142;49.930;8.606;2023-05-19T03:00:48;100747.16;;;8.53;100.00
21956;BME280;11142;49.930;8.606;2023-05-19T03:03:17;100743.72;;;8.53;100.00
21956;BME280;11142;49.930;8.606;2023-05-19T03:05:45;100742.63;;;8.59;100.00
21956;BME280;11142;49.930;8.606;2023-05-19T03:08:14;100746.09;;;8.58;100.00
21956;BME280;11142;49.930;8.606;2023-05-19T03:10:43;100750.38;;;8.59;100.00
21956;BME280;11142;49.930;8.606;2023-05-19T03:13:12;100744.38;;;8.58;100.00
21956;BME280;11142;49.930;8.606;2023-05-19T03:15:40;100760.78;;;8.57;100.00
21956;BME280;11142;49.930;8.606;2023-05-19T03:18:08;100758.19;;;8.57;100.00
21956;BME280;11142;49.930;8.606;2023-05-19T03:20:37;100759.81;;;8.60;100.00
21956;BME280;11142;49.930;8.606;2023-05-19T03:23:08;100759.00;;;8.59;100.00
21956;BME280;11142;49.930;8.606;2023-05-19T03:25:36;100760.72;;;8.59;100.00
21956;BME280;11142;49.930;8.606;2023-05-19T03:28:05;100754.06;;;8.53;100.00
21956;BME280;11142;49.930;8.606;2023-05-19T03:30:33;100748.41;;;8.45;100.00
21956;BME280;11142;49.930;8.606;2023-05-19T03:33:12;100754.88;;;8.35;100.00
21956;BME280;11142;49.930;8.606;2023-05-19T03:35:41;100760.84;;;8.37;100.00
21956;BME280;11142;49.930;8.606;2023-05-19T03:38:09;100762.44;;;8.39;100.00
21956;BME280;11142;49.930;8.606;2023-05-19T03:40:41;100767.81;;;8.35;100.00
21956;BME280;11142;49.930;8.606;2023-05-19T03:43:12;100767.09;;;8.31;100.00
21956;BME280;11142;49.930;8.606;2023-05-19T03:45:47;100770.75;;;8.26;100.00
21956;BME280;11142;49.930;8.606;2023-05-19T03:48:34;100764.97;;;8.21;100.00
21956;BME280;11142;49.930;8.606;2023-05-19T03:51:31;100764.75;;;8.25;100.00
21956;BME280;11142;49.930;8.606;2023-05-19T03:54:16;100770.03;;;8.22;100.00
21956;BME280;11142;49.930;8.606;2023-05-19T03:56:45;100770.59;;;8.30;100.00
21956;BME280;11142;49.930;8.606;2023-05-19T03:59:15;100767.03;;;8.33;100.00
21956;BME280;11142;49.930;8.606;2023-05-19T04:01:43;100762.44;;;8.39;100.00
21956;BME280;11142;49.930;8.606;2023-05-19T04:04:12;100760.00;;;8.36;100.00
21956;BME280;11142;49.930;8.606;2023-05-19T04:06:40;100764.38;;;8.34;100.00
21956;BME280;11142;49.930;8.606;2023-05-19T04:09:10;100765.03;;;8.39;100.00
21956;BME280;11142;49.930;8.606;2023-05-19T04:11:39;100769.22;;;8.42;100.00
21956;BME280;11142;49.930;8.606;2023-05-19T04:14:07;100767.00;;;8.53;100.00
21956;BME280;11142;49.930;8.606;2023-05-19T04:16:37;100771.28;;;8.73;100.00
21956;BME280;11142;49.930;8.606;2023-05-19T04:19:05;100777.88;;;8.80;100.00
21956;BME280;11142;49.930;8.606;2023-05-19T04:21:34;100777.97;;;8.97;100.00
21956;BME280;11142;49.930;8.606;2023-05-19T04:24:03;100774.88;;;8.89;100.00
21956;BME280;11142;49.930;8.606;2023-05-19T04:26:33;100782.16;;;8.99;100.00
21956;BME280;11142;49.930;8.606;2023-05-19T04:29:01;100773.34;;;9.03;100.00
21956;BME280;11142;49.930;8.606;2023-05-19T04:31:31;100781.03;;;8.86;100.00
21956;BME280;11142;49.930;8.606;2023-05-19T04:34:03;100772.50;;;8.84;100.00
21956;BME280;11142;49.930;8.606;2023-05-19T04:36:31;100775.09;;;8.84;100.00
21956;BME280;11142;49.930;8.606;2023-05-19T04:39:01;100771.81;;;8.81;100.00
21956;BME280;11142;49.930;8.606;2023-05-19T04:41:34;100776.97;;;8.99;100.00
21956;BME280;11142;49.930;8.606;2023-05-19T04:44:07;100776.75;;;9.04;100.00
21956;BME280;11142;49.930;8.606;2023-05-19T04:46:36;100780.69;;;9.13;100.00
21956;BME280;11142;49.930;8.606;2023-05-19T04:49:06;100785.91;;;9.11;100.00
21956;BME280;11142;49.930;8.606;2023-05-19T04:51:34;100787.06;;;9.05;100.00
21956;BME280;11142;49.930;8.606;2023-05-19T04:54:02;100785.88;;;8.94;100.00
21956;BME280;11142;49.930;8.606;2023-05-19T04:56:31;100791.25;;;9.08;100.00
21956;BME280;11142;49.930;8.606;2023-05-19T04:59:00;100792.00;;;9.10;100.00
21956;BME280;11142;49.930;8.606;2023-05-19T05:01:28;100796.13;;;9.14;100.00
21956;BME280;11142;49.930;8.606;2023-05-19T05:04:00;100786.56;;;9.16;100.00
21956;BME280;11142;49.930;8.606;2023-05-19T05:06:31;100803.69;;;9.37;100.00
21956;BME280;11142;49.930;8.606;2023-05-19T05:08:59;100794.22;;;9.36;100.00
21956;BME280;11142;49.930;8.606;2023-05-19T05:11:29;100804.00;;;9.48;100.00
21956;BME280;11142;49.930;8.606;2023-05-19T05:14:01;100796.66;;;9.39;100.00
21956;BME280;11142;49.930;8.606;2023-05-19T05:16:30;100802.06;;;9.53;100.00
21956;BME280;11142;49.930;8.606;2023-05-19T05:18:59;100800.50;;;9.49;100.00
21956;BME280;11142;49.930;8.606;2023-05-19T05:21:28;100796.56;;;9.77;100.00
21956;BME280;11142;49.930;8.606;2023-05-19T05:23:59;100796.72;;;9.74;100.00
21956;BME280;11142;49.930;8.606;2023-05-19T05:26:32;100790.81;;;9.89;100.00
21956;BME280;11142;49.930;8.606;2023-05-19T05:29:00;100794.19;;;10.08;100.00
21956;BME280;11142;49.930;8.606;2023-05-19T05:31:28;100798.00;;;10.01;100.00
21956;BME280;11142;49.930;8.606;2023-05-19T05:33:57;100793.41;;;10.06;100.00
21956;BME280;11142;49.930;8.606;2023-05-19T05:36:29;100793.38;;;10.57;100.00
21956;BME280;11142;49.930;8.606;2023-05-19T05:39:00;100792.47;;;10.58;100.00
21956;BME280;11142;49.930;8.606;2023-05-19T05:41:29;100786.50;;;10.89;100.00
21956;BME280;11142;49.930;8.606;2023-05-19T05:44:07;100789.94;;;11.21;100.00
21956;BME280;11142;49.930;8.606;2023-05-19T05:46:37;100781.16;;;11.08;100.00
21956;BME280;11142;49.930;8.606;2023-05-19T05:49:06;100786.06;;;10.81;100.00
21956;BME280;11142;49.930;8.606;2023-05-19T05:51:34;100795.31;;;11.18;100.00
21956;BME280;11142;49.930;8.606;2023-05-19T05:54:05;100797.75;;;11.05;100.00
21956;BME280;11142;49.930;8.606;2023-05-19T05:56:36;100785.59;;;11.37;100.00
21956;BME280;11142;49.930;8.606;2023-05-19T05:59:09;100792.22;;;11.27;100.00
21956;BME280;11142;49.930;8.606;2023-05-19T06:01:37;100790.03;;;11.51;100.00
21956;BME280;11142;49.930;8.606;2023-05-19T06:04:07;100782.63;;;11.75;100.00
21956;BME280;11142;49.930;8.606;2023-05-19T06:06:36;100789.81;;;11.85;100.00
21956;BME280;11142;49.930;8.606;2023-05-19T06:09:06;100788.97;;;11.85;100.00
21956;BME280;11142;49.930;8.606;2023-05-19T06:11:34;100790.38;;;12.34;100.00
21956;BME280;11142;49.930;8.606;2023-05-19T06:14:03;100792.44;;;12.29;100.00
21956;BME280;11142;49.930;8.606;2023-05-19T06:16:46;100791.56;;;12.14;100.00
21956;BME280;11142;49.930;8.606;2023-05-19T06:19:17;100786.63;;;12.24;100.00
21956;BME280;11142;49.930;8.606;2023-05-19T06:21:46;100786.31;;;12.58;100.00
21956;BME280;11142;49.930;8.606;2023-05-19T06:24:15;100788.06;;;12.72;100.00
21956;BME280;11142;49.930;8.606;2023-05-19T06:26:44;100784.06;;;12.95;100.00
21956;BME280;11142;49.930;8.606;2023-05-19T06:29:12;100787.16;;;12.87;100.00
21956;BME280;11142;49.930;8.606;2023-05-19T06:31:42;100789.03;;;13.40;96.72
21956;BME280;11142;49.930;8.606;2023-05-19T06:34:13;100790.22;;;13.75;89.19
21956;BME280;11142;49.930;8.606;2023-05-19T06:36:45;100789.50;;;13.99;89.26
21956;BME280;11142;49.930;8.606;2023-05-19T06:39:15;100793.72;;;14.14;86.65
21956;BME280;11142;49.930;8.606;2023-05-19T06:41:44;100797.38;;;13.72;90.83
21956;BME280;11142;49.930;8.606;2023-05-19T06:44:25;100799.66;;;14.03;90.90
21956;BME280;11142;49.930;8.606;2023-05-19T06:46:53;100801.19;;;13.93;87.97
21956;BME280;11142;49.930;8.606;2023-05-19T06:49:21;100800.22;;;14.33;82.43
21956;BME280;11142;49.930;8.606;2023-05-19T06:51:50;100792.06;;;14.13;82.29
21956;BME280;11142;49.930;8.606;2023-05-19T06:54:20;100806.31;;;14.47;81.08
21956;BME280;11142;49.930;8.606;2023-05-19T06:56:48;100799.19;;;14.86;77.83
21956;BME280;11142;49.930;8.606;2023-05-19T06:59:16;100796.13;;;14.17;80.50
21956;BME280;11142;49.930;8.606;2023-05-19T07:01:48;100798.03;;;14.65;78.92
21956;BME280;11142;49.930;8.606;2023-05-19T07:04:16;100781.84;;;15.46;74.61
21956;BME280;11142;49.930;8.606;2023-05-19T07:06:44;100789.53;;;15.72;72.24
21956;BME280;11142;49.930;8.606;2023-05-19T07:09:12;100792.59;;;15.30;71.34
21956;BME280;11142;49.930;8.606;2023-05-19T07:11:44;100793.13;;;15.22;72.56
21956;BME280;11142;49.930;8.606;2023-05-19T07:14:12;100787.28;;;16.14;70.87
21956;BME280;11142;49.930;8.606;2023-05-19T07:16:40;100777.72;;;16.70;65.16
21956;BME280;11142;49.930;8.606;2023-05-19T07:19:09;100781.66;;;16.86;63.10
21956;BME280;11142;49.930;8.606;2023-05-19T07:21:37;100781.63;;;16.97;62.25
21956;BME280;11142;49.930;8.606;2023-05-19T07:24:05;100783.28;;;17.10;62.65
21956;BME280;11142;49.930;8.606;2023-05-19T07:26:33;100780.34;;;16.81;61.55
21956;BME280;11142;49.930;8.606;2023-05-19T07:29:02;100774.53;;;16.55;61.86
21956;BME280;11142;49.930;8.606;2023-05-19T07:31:30;100777.53;;;16.27;65.70
21956;BME280;11142;49.930;8.606;2023-05-19T07:33:58;100778.44;;;16.61;62.59
21956;BME280;11142;49.930;8.606;2023-05-19T07:36:26;100777.38;;;16.85;62.54
21956;BME280;11142;49.930;8.606;2023-05-19T07:38:54;100769.56;;;17.17;61.10
21956;BME280;11142;49.930;8.606;2023-05-19T07:41:21;100772.31;;;17.90;59.01
21956;BME280;11142;49.930;8.606;2023-05-19T07:43:50;100773.31;;;18.51;54.43
21956;BME280;11142;49.930;8.606;2023-05-19T07:46:19;100771.28;;;19.04;52.57
21956;BME280;11142;49.930;8.606;2023-05-19T07:48:48;100776.06;;;18.80;52.81
21956;BME280;11142;49.930;8.606;2023-05-19T07:51:15;100772.69;;;18.48;53.07
21956;BME280;11142;49.930;8.606;2023-05-19T07:53:44;100764.31;;;18.54;55.88
21956;BME280;11142;49.930;8.606;2023-05-19T07:56:14;100763.50;;;18.33;54.72
21956;BME280;11142;49.930;8.606;2023-05-19T07:58:42;100761.66;;;18.84;52.49
21956;BME280;11142;49.930;8.606;2023-05-19T08:01:10;100757.78;;;19.76;50.88
21956;BME280;11142;49.930;8.606;2023-05-19T08:03:39;100757.13;;;20.49;47.43
21956;BME280;11142;49.930;8.606;2023-05-19T08:06:07;100753.31;;;19.29;51.07
21956;BME280;11142;49.930;8.606;2023-05-19T08:08:35;100751.81;;;19.36;52.79
21956;BME280;11142;49.930;8.606;2023-05-19T08:11:03;100744.63;;;19.67;49.43
21956;BME280;11142;49.930;8.606;2023-05-19T08:13:32;100748.41;;;20.39;46.42
21956;BME280;11142;49.930;8.606;2023-05-19T08:16:00;100745.75;;;20.49;48.22
21956;BME280;11142;49.930;8.606;2023-05-19T08:18:28;100742.28;;;19.73;48.00
21956;BME280;11142;49.930;8.606;2023-05-19T08:20:58;100741.31;;;18.05;52.95
21956;BME280;11142;49.930;8.606;2023-05-19T08:23:26;100745.00;;;20.20;48.22
21956;BME280;11142;49.930;8.606;2023-05-19T08:25:55;100747.41;;;21.32;45.10
21956;BME280;11142;49.930;8.606;2023-05-19T08:28:23;100746.66;;;21.75;42.71
21956;BME280;11142;49.930;8.606;2023-05-19T08:30:52;100746.13;;;22.06;41.26
21956;BME280;11142;49.930;8.606;2023-05-19T08:33:20;100739.72;;;21.21;42.88
21956;BME280;11142;49.930;8.606;2023-05-19T08:35:48;100736.34;;;22.33;41.70
21956;BME280;11142;49.930;8.606;2023-05-19T08:38:18;100724.97;;;22.06;41.01
21956;BME280;11142;49.930;8.606;2023-05-19T08:40:46;100725.16;;;21.16;42.69
21956;BME280;11142;49.930;8.606;2023-05-19T08:43:14;100719.25;;;22.45;39.38
21956;BME280;11142;49.930;8.606;2023-05-19T08:45:43;100722.22;;;22.50;39.49
21956;BME280;11142;49.930;8.606;2023-05-19T08:48:12;100720.16;;;22.36;40.07
21956;BME280;11142;49.930;8.606;2023-05-19T08:50:40;100722.22;;;21.55;40.91
21956;BME280;11142;49.930;8.606;2023-05-19T08:53:17;100717.56;;;21.04;42.17
21956;BME280;11142;49.930;8.606;2023-05-19T08:56:03;100714.94;;;20.03;43.25
21956;BME280;11142;49.930;8.606;2023-05-19T08:58:37;100712.63;;;19.42;45.17
21956;BME280;11142;49.930;8.606;2023-05-19T09:01:06;100697.38;;;19.46;44.20
21956;BME280;11142;49.930;8.606;2023-05-19T09:03:34;100698.19;;;19.85;43.33
21956;BME280;11142;49.930;8.606;2023-05-19T09:06:04;100694.16;;;19.90;42.89
21956;BME280;11142;49.930;8.606;2023-05-19T09:08:36;100704.78;;;20.08;43.03
21956;BME280;11142;49.930;8.606;2023-05-19T09:11:06;100699.66;;;20.53;41.45
21956;BME280;11142;49.930;8.606;2023-05-19T09:13:35;100704.06;;;19.50;42.37
21956;BME280;11142;49.930;8.606;2023-05-19T09:16:05;100690.47;;;20.10;42.55
21956;BME280;11142;49.930;8.606;2023-05-19T09:18:36;100682.75;;;21.79;40.25
21956;BME280;11142;49.930;8.606;2023-05-19T09:21:05;100679.41;;;22.88;37.31
21956;BME280;11142;49.930;8.606;2023-05-19T09:23:35;100688.28;;;22.37;37.68
21956;BME280;11142;49.930;8.606;2023-05-19T09:26:04;100682.44;;;22.00;37.73
21956;BME280;11142;49.930;8.606;2023-05-19T09:28:35;100674.81;;;21.53;39.33
21956;BME280;11142;49.930;8.606;2023-05-19T09:31:04;100676.72;;;21.26;39.18
21956;BME280;11142;49.930;8.606;2023-05-19T09:33:33;100662.75;;;21.51;38.79
21956;BME280;11142;49.930;8.606;2023-05-19T09:36:02;100659.06;;;21.08;38.92
21956;BME280;11142;49.930;8.606;2023-05-19T09:38:31;100661.91;;;20.80;38.60
21956;BME280;11142;49.930;8.606;2023-05-19T09:40:59;100657.22;;;20.91;40.62
21956;BME280;11142;49.930;8.606;2023-05-19T09:43:28;100670.84;;;21.14;38.77
21956;BME280;11142;49.930;8.606;2023-05-19T09:46:03;100660.28;;;20.69;39.25
21956;BME280;11142;49.930;8.606;2023-05-19T09:48:33;100661.66;;;20.46;39.11
21956;BME280;11142;49.930;8.606;2023-05-19T09:51:02;100664.91;;;20.30;38.46
21956;BME280;11142;49.930;8.606;2023-05-19T09:53:32;100661.53;;;20.65;38.99
21956;BME280;11142;49.930;8.606;2023-05-19T09:56:01;100662.28;;;20.30;39.76
21956;BME280;11142;49.930;8.606;2023-05-19T09:58:30;100658.63;;;20.41;40.14
21956;BME280;11142;49.930;8.606;2023-05-19T10:01:00;100680.31;;;21.07;37.97
21956;BME280;11142;49.930;8.606;2023-05-19T10:03:30;100663.16;;;21.21;38.92
21956;BME280;11142;49.930;8.606;2023-05-19T10:05:59;100651.78;;;22.49;36.63
21956;BME280;11142;49.930;8.606;2023-05-19T10:08:28;100658.13;;;22.64;37.27
21956;BME280;11142;49.930;8.606;2023-05-19T10:10:57;100668.09;;;22.02;37.67
21956;BME280;11142;49.930;8.606;2023-05-19T10:13:25;100653.94;;;22.95;36.58
21956;BME280;11142;49.930;8.606;2023-05-19T10:15:56;100659.03;;;24.10;35.39
21956;BME280;11142;49.930;8.606;2023-05-19T10:18:26;100652.13;;;23.76;34.61
21956;BME280;11142;49.930;8.606;2023-05-19T10:20:56;100650.28;;;22.96;35.25
21956;BME280;11142;49.930;8.606;2023-05-19T10:23:25;100646.97;;;23.02;36.60
21956;BME280;11142;49.930;8.606;2023-05-19T10:25:53;100645.03;;;23.28;35.56
21956;BME280;11142;49.930;8.606;2023-05-19T10:28:23;100641.81;;;22.85;36.04
21956;BME280;11142;49.930;8.606;2023-05-19T10:30:53;100642.13;;;22.65;36.60
21956;BME280;11142;49.930;8.606;2023-05-19T10:33:26;100647.69;;;22.20;37.88
21956;BME280;11142;49.930;8.606;2023-05-19T10:36:04;100637.91;;;21.87;39.32
21956;BME280;11142;49.930;8.606;2023-05-19T10:38:39;100639.44;;;21.29;39.31
21956;BME280;11142;49.930;8.606;2023-05-19T10:41:10;100628.09;;;21.54;39.14
21956;BME280;11142;49.930;8.606;2023-05-19T10:43:45;100626.47;;;21.53;39.52
21956;BME280;11142;49.930;8.606;2023-05-19T10:46:15;100635.41;;;21.60;40.38
21956;BME280;11142;49.930;8.606;2023-05-19T10:48:44;100630.53;;;20.77;41.66
21956;BME280;11142;49.930;8.606;2023-05-19T10:51:14;100632.28;;;20.86;43.07
21956;BME280;11142;49.930;8.606;2023-05-19T10:53:42;100625.03;;;21.41;41.16
21956;BME280;11142;49.930;8.606;2023-05-19T10:56:26;100625.13;;;21.75;39.89
21956;BME280;11142;49.930;8.606;2023-05-19T10:58:56;100629.25;;;21.77;40.25
21956;BME280;11142;49.930;8.606;2023-05-19T11:01:28;100623.13;;;22.36;39.88
21956;BME280;11142;49.930;8.606;2023-05-19T11:04:01;100623.94;;;22.79;39.90
21956;BME280;11142;49.930;8.606;2023-05-19T11:06:32;100619.75;;;22.18;38.49
21956;BME280;11142;49.930;8.606;2023-05-19T11:09:09;100608.16;;;22.53;39.97
21956;BME280;11142;49.930;8.606;2023-05-19T11:11:45;100616.53;;;22.40;38.93
21956;BME280;11142;49.930;8.606;2023-05-19T11:14:13;100623.31;;;22.43;38.66
21956;BME280;11142;49.930;8.606;2023-05-19T11:16:44;100617.66;;;21.96;39.75
21956;BME280;11142;49.930;8.606;2023-05-19T11:19:17;100608.56;;;22.82;39.16
21956;BME280;11142;49.930;8.606;2023-05-19T11:21:47;100612.19;;;23.94;37.03
21956;BME280;11142;49.930;8.606;2023-05-19T11:24:34;100607.16;;;25.45;34.15
21956;BME280;11142;49.930;8.606;2023-05-19T11:29:46;100611.81;;;30.51;26.86
21956;BME280;11142;49.930;8.606;2023-05-19T11:32:14;100612.06;;;26.44;31.60
21956;BME280;11142;49.930;8.606;2023-05-19T11:34:42;100600.00;;;23.61;35.63
21956;BME280;11142;49.930;8.606;2023-05-19T11:37:12;100605.06;;;26.93;32.86
21956;BME280;11142;49.930;8.606;2023-05-19T11:39:40;100597.81;;;29.85;27.57
21956;BME280;11142;49.930;8.606;2023-05-19T11:42:09;100600.72;;;32.03;25.04
21956;BME280;11142;49.930;8.606;2023-05-19T11:44:37;100600.06;;;29.88;26.52
21956;BME280;11142;49.930;8.606;2023-05-19T11:47:06;100599.25;;;26.18;31.34
21956;BME280;11142;49.930;8.606;2023-05-19T11:49:34;100581.94;;;26.22;31.15
21956;BME280;11142;49.930;8.606;2023-05-19T11:52:02;100589.78;;;25.57;32.80
21956;BME280;11142;49.930;8.606;2023-05-19T11:54:33;100590.03;;;27.07;30.13
21956;BME280;11142;49.930;8.606;2023-05-19T11:57:02;100584.88;;;28.90;29.43
21956;BME280;11142;49.930;8.606;2023-05-19T11:59:31;100587.09;;;29.79;27.16
21956;BME280;11142;49.930;8.606;2023-05-19T12:02:01;100578.09;;;27.86;28.64
21956;BME280;11142;49.930;8.606;2023-05-19T12:04:30;100578.69;;;25.31;32.33
21956;BME280;11142;49.930;8.606;2023-05-19T12:06:58;100568.75;;;24.65;34.93
21956;BME280;11142;49.930;8.606;2023-05-19T12:09:29;100570.88;;;28.75;29.88
21956;BME280;11142;49.930;8.606;2023-05-19T12:11:58;100575.66;;;28.32;29.29
21956;BME280;11142;49.930;8.606;2023-05-19T12:14:28;100572.00;;;25.87;31.83
21956;BME280;11142;49.930;8.606;2023-05-19T12:16:57;100576.44;;;25.05;33.21
21956;BME280;11142;49.930;8.606;2023-05-19T12:19:24;100570.09;;;25.29;33.18
21956;BME280;11142;49.930;8.606;2023-05-19T12:21:53;100577.19;;;25.36;33.39
21956;BME280;11142;49.930;8.606;2023-05-19T12:24:21;100577.84;;;26.12;31.71
21956;BME280;11142;49.930;8.606;2023-05-19T12:26:49;100571.13;;;25.43;32.90
21956;BME280;11142;49.930;8.606;2023-05-19T12:29:18;100579.91;;;25.80;33.04
21956;BME280;11142;49.930;8.606;2023-05-19T12:31:46;100573.56;;;27.80;29.28
21956;BME280;11142;49.930;8.606;2023-05-19T12:34:14;100571.91;;;25.66;32.07
21956;BME280;11142;49.930;8.606;2023-05-19T12:36:42;100567.91;;;26.85;30.50
21956;BME280;11142;49.930;8.606;2023-05-19T12:39:10;100562.09;;;23.99;35.13
21956;BME280;11142;49.930;8.606;2023-05-19T12:41:39;100557.72;;;22.62;37.29
21956;BME280;11142;49.930;8.606;2023-05-19T12:44:12;100551.00;;;23.00;37.10
21956;BME280;11142;49.930;8.606;2023-05-19T12:46:42;100556.69;;;23.85;36.28
21956;BME280;11142;49.930;8.606;2023-05-19T12:49:10;100557.94;;;25.12;34.41
21956;BME280;11142;49.930;8.606;2023-05-19T12:51:38;100560.16;;;23.85;36.36
21956;BME280;11142;49.930;8.606;2023-05-19T12:54:05;100554.63;;;23.48;36.51
21956;BME280;11142;49.930;8.606;2023-05-19T12:56:34;100545.66;;;23.65;36.03
21956;BME280;11142;49.930;8.606;2023-05-19T12:59:02;100547.66;;;23.55;36.47
21956;BME280;11142;49.930;8.606;2023-05-19T13:01:30;100536.09;;;22.99;38.00
21956;BME280;11142;49.930;8.606;2023-05-19T13:03:59;100542.81;;;23.74;37.35
21956;BME280;11142;49.930;8.606;2023-05-19T13:06:30;100542.84;;;24.44;36.42
21956;BME280;11142;49.930;8.606;2023-05-19T13:08:58;100540.34;;;25.48;34.66